Time;durP1;ratioP1;P1;durP2;ratioP2;P2;SDS_P1;SDS_P2;PMS_P1;PMS_P2;Temp;Humidity;BMP_temperature;BMP_pressure;BME280_temperature;BME280_humidity;BME280_pressure;Samples;Min_cycle;Max_cycle;Signal;HPM_P1;HPM_P2
2023/08/23 00:00:07;;;;;;;8.35;5.15;;;;;;;15.25;100.00;101937.94;10478683;28;20416;-68
2023/08/23 00:05:08;;;;;;;7.72;4.88;;;;;;;15.22;100.00;101944.03;10459942;28;20616;-67
2023/08/23 00:10:10;;;;;;;9.02;4.07;;;;;;;15.10;100.00;101931.13;10471654;28;20033;-67
2023/08/23 00:15:10;;;;;;;7.72;4.20;;;;;;;14.97;100.00;101925.16;10480150;28;20040;-67
2023/08/23 00:20:11;;;;;;;6.25;4.72;;;;;;;14.92;100.00;101943.41;10475680;28;20040;-67
2023/08/23 00:25:11;;;;;;;6.53;4.57;;;;;;;14.83;100.00;101949.66;10477220;28;20508;-67
2023/08/23 00:30:12;;;;;;;6.28;5.03;;;;;;;14.73;100.00;101950.34;10478831;28;20041;-67
2023/08/23 00:35:13;;;;;;;10.48;5.75;;;;;;;14.68;100.00;101945.56;10476860;28;20145;-67
2023/08/23 00:40:13;;;;;;;7.47;5.60;;;;;;;14.71;100.00;101949.75;10479923;28;20036;-67
2023/08/23 00:45:14;;;;;;;7.93;5.38;;;;;;;14.66;100.00;101939.44;10462346;28;20041;-67
2023/08/23 00:50:14;;;;;;;6.75;4.55;;;;;;;14.60;100.00;101939.63;10479261;28;20402;-67
2023/08/23 00:55:15;;;;;;;7.85;5.07;;;;;;;14.56;100.00;101953.16;10497263;28;20112;-67
2023/08/23 01:00:16;;;;;;;8.60;5.90;;;;;;;14.59;100.00;101952.63;10447361;28;20115;-68
2023/08/23 01:05:16;;;;;;;7.80;5.65;;;;;;;14.62;100.00;101956.84;10479323;28;20055;-67
2023/08/23 01:10:27;;;;;;;8.27;6.00;;;;;;;14.61;100.00;101939.34;10474205;28;20045;-68
2023/08/23 01:15:28;;;;;;;11.02;7.18;;;;;;;14.57;100.00;101940.97;10454139;28;20072;-67
2023/08/23 01:20:28;;;;;;;10.35;7.22;;;;;;;14.57;100.00;101935.41;10454629;28;20048;-67
2023/08/23 01:25:29;;;;;;;13.30;7.97;;;;;;;14.50;100.00;101943.06;10468827;28;20033;-68
2023/08/23 01:30:29;;;;;;;14.90;7.78;;;;;;;14.43;100.00;101925.78;10466597;28;20064;-68
2023/08/23 01:35:51;;;;;;;11.35;7.35;;;;;;;14.45;100.00;101937.41;10456220;28;20071;-67
2023/08/23 01:40:52;;;;;;;9.35;6.78;;;;;;;14.45;100.00;101942.97;10431191;28;20043;-67
2023/08/23 01:45:52;;;;;;;12.30;8.00;;;;;;;14.38;100.00;101936.78;10452913;28;20579;-68
2023/08/23 01:50:53;;;;;;;12.35;7.50;;;;;;;14.33;100.00;101938.38;10456203;28;20059;-68
2023/08/23 01:55:54;;;;;;;17.13;8.55;;;;;;;14.27;100.00;101925.53;10445897;28;20095;-68
2023/08/23 02:00:54;;;;;;;10.73;6.75;;;;;;;14.21;100.00;101926.53;10432508;28;20147;-67
2023/08/23 02:05:55;;;;;;;9.55;7.30;;;;;;;14.11;100.00;101926.38;10436523;28;20263;-68
2023/08/23 02:10:56;;;;;;;14.48;6.72;;;;;;;14.13;100.00;101935.28;10429225;28;20037;-68
2023/08/23 02:15:56;;;;;;;9.25;6.57;;;;;;;14.07;100.00;101936.28;10435917;28;20037;-68
2023/08/23 02:20:57;;;;;;;10.80;6.38;;;;;;;13.96;100.00;101924.22;10429821;28;20033;-68
2023/08/23 02:25:57;;;;;;;9.32;6.30;;;;;;;13.97;100.00;101930.56;10435173;28;20041;-68
2023/08/23 02:31:02;;;;;;;9.93;6.82;;;;;;;13.93;100.00;101922.78;10430872;28;20044;-68
2023/08/23 02:36:03;;;;;;;9.85;7.07;;;;;;;13.75;100.00;101892.59;10456954;28;20060;-68
2023/08/23 02:41:04;;;;;;;13.98;6.55;;;;;;;13.80;100.00;101923.09;10481194;28;20047;-68
2023/08/23 02:46:05;;;;;;;12.73;6.53;;;;;;;13.79;100.00;101910.38;10478291;28;20060;-69
2023/08/23 02:51:06;;;;;;;9.30;6.43;;;;;;;13.82;100.00;101909.84;10481107;28;20037;-69
2023/08/23 02:56:07;;;;;;;11.45;6.63;;;;;;;13.86;100.00;101901.91;10480023;28;20040;-69
2023/08/23 03:01:07;;;;;;;10.13;7.65;;;;;;;13.85;100.00;101895.53;10479572;28;20045;-69
2023/08/23 03:06:08;;;;;;;9.57;6.40;;;;;;;13.83;100.00;101892.16;10477000;28;20041;-68
2023/08/23 03:11:08;;;;;;;8.63;6.30;;;;;;;13.82;100.00;101890.47;10473949;28;20044;-69
2023/08/23 03:16:09;;;;;;;11.30;7.97;;;;;;;13.72;100.00;101885.63;10470386;28;20033;-68
2023/08/23 03:21:09;;;;;;;11.43;6.05;;;;;;;13.78;100.00;101903.13;10472169;28;20042;-66
2023/08/23 03:26:09;;;;;;;8.98;6.85;;;;;;;13.72;100.00;101906.91;10478085;28;20040;-69
2023/08/23 03:31:10;;;;;;;8.00;6.15;;;;;;;13.69;100.00;101910.19;10480383;28;20537;-69
2023/08/23 03:36:10;;;;;;;7.80;6.15;;;;;;;13.68;100.00;101902.97;10473784;28;20042;-69
2023/08/23 03:41:13;;;;;;;8.18;6.28;;;;;;;13.70;100.00;101903.56;10477694;28;20045;-68
2023/08/23 03:46:13;;;;;;;9.15;6.03;;;;;;;13.71;100.00;101913.56;10474837;28;20033;-68
2023/08/23 03:51:14;;;;;;;8.60;5.53;;;;;;;13.18;100.00;101840.09;10481872;28;20045;-69
2023/08/23 03:56:14;;;;;;;15.98;8.32;;;;;;;13.81;100.00;101910.97;10475475;28;20044;-69
2023/08/23 04:01:15;;;;;;;12.93;7.88;;;;;;;13.88;100.00;101896.94;10467489;28;20071;-69
2023/08/23 04:06:15;;;;;;;13.07;8.05;;;;;;;13.89;100.00;101905.00;10476117;28;20037;-69
2023/08/23 04:11:16;;;;;;;13.70;9.07;;;;;;;13.91;100.00;101893.66;10482013;28;20032;-68
2023/08/23 04:16:16;;;;;;;17.65;10.10;;;;;;;13.96;100.00;101891.00;10476901;28;20037;-66
2023/08/23 04:21:17;;;;;;;17.70;10.43;;;;;;;14.01;100.00;101890.22;10475434;28;20037;-69
2023/08/23 04:26:17;;;;;;;12.68;7.88;;;;;;;14.03;100.00;101896.34;10473025;28;20052;-68
2023/08/23 04:31:18;;;;;;;12.57;8.25;;;;;;;13.82;100.00;101859.19;10471009;28;20040;-68
2023/08/23 04:36:18;;;;;;;15.20;9.02;;;;;;;14.09;100.00;101895.34;10475618;28;20067;-69
2023/08/23 04:41:18;;;;;;;12.95;7.38;;;;;;;14.09;100.00;101889.81;10476753;28;20060;-69
2023/08/23 04:46:19;;;;;;;11.70;7.60;;;;;;;14.09;100.00;101895.34;10470117;28;20037;-69
2023/08/23 04:51:21;;;;;;;12.00;7.70;;;;;;;14.20;100.00;101897.19;10477580;28;20092;-69
2023/08/23 04:56:21;;;;;;;13.02;8.52;;;;;;;14.33;100.00;101912.59;10473013;28;20041;-69
2023/08/23 05:01:22;;;;;;;14.65;7.85;;;;;;;14.45;100.00;101893.94;10481323;28;20036;-69
2023/08/23 05:06:23;;;;;;;12.65;7.85;;;;;;;14.60;100.00;101915.50;10467313;28;20075;-68
2023/08/23 05:11:23;;;;;;;11.88;7.88;;;;;;;14.73;100.00;101912.34;10465838;28;20836;-69
2023/08/23 05:16:24;;;;;;;15.15;8.55;;;;;;;14.84;100.00;101902.25;10474092;28;20033;-69
2023/08/23 05:21:24;;;;;;;11.00;7.55;;;;;;;14.91;100.00;101902.06;10473249;28;20047;-70
2023/08/23 05:26:25;;;;;;;14.60;9.20;;;;;;;15.01;100.00;101895.81;10467271;28;20036;-69
2023/08/23 05:31:25;;;;;;;14.20;8.00;;;;;;;15.07;100.00;101890.06;10474602;28;20071;-68
2023/08/23 05:36:26;;;;;;;16.83;8.90;;;;;;;15.18;100.00;101895.72;10476657;28;20381;-69
2023/08/23 05:41:26;;;;;;;15.27;8.82;;;;;;;15.27;100.00;101894.13;10476791;28;20063;-69
2023/08/23 05:46:26;;;;;;;17.38;9.38;;;;;;;15.43;100.00;101893.19;10471012;28;20055;-69
2023/08/23 05:51:27;;;;;;;22.52;11.38;;;;;;;15.57;100.00;101896.41;10472282;28;20055;-69
2023/08/23 05:56:27;;;;;;;19.55;11.40;;;;;;;15.63;100.00;101905.63;10479862;28;20045;-69
2023/08/23 06:01:28;;;;;;;20.27;11.25;;;;;;;15.68;100.00;101900.09;10474325;28;20060;-68
2023/08/23 06:06:29;;;;;;;24.60;13.52;;;;;;;15.64;100.00;101894.22;10477098;28;20037;-69
2023/08/23 06:11:29;;;;;;;22.13;12.00;;;;;;;15.80;100.00;101898.03;10472372;28;20032;-69
2023/08/23 06:16:30;;;;;;;23.30;13.13;;;;;;;16.11;100.00;101892.72;10477763;28;20037;-69
2023/08/23 06:21:30;;;;;;;23.90;13.57;;;;;;;16.44;100.00;101902.66;10482149;28;20036;-70
2023/08/23 06:26:30;;;;;;;23.80;13.55;;;;;;;16.75;100.00;101903.66;10472448;28;20045;-69
2023/08/23 06:31:31;;;;;;;23.70;12.93;;;;;;;17.06;100.00;101902.97;10466148;28;20099;-68
2023/08/23 06:36:31;;;;;;;21.50;12.95;;;;;;;17.25;100.00;101906.91;10471584;28;20041;-68
2023/08/23 06:41:32;;;;;;;17.77;12.18;;;;;;;17.51;100.00;101915.34;10481113;28;20052;-68
2023/08/23 06:46:32;;;;;;;21.90;12.85;;;;;;;17.73;100.00;101924.25;10475385;28;20644;-68
2023/08/23 06:51:33;;;;;;;18.55;12.20;;;;;;;18.09;100.00;101924.31;10467438;28;20047;-68
2023/08/23 06:56:34;;;;;;;27.95;14.73;;;;;;;18.33;100.00;101913.41;10467316;28;20056;-68
2023/08/23 07:01:35;;;;;;;21.17;14.43;;;;;;;18.57;100.00;101925.91;10427082;28;20049;-69
2023/08/23 07:06:35;;;;;;;25.23;14.48;;;;;;;18.74;100.00;101932.81;10459979;28;20040;-67
2023/08/23 07:11:36;;;;;;;21.23;13.85;;;;;;;18.85;100.00;101932.81;10470956;28;20151;-67
2023/08/23 07:16:36;;;;;;;26.90;16.77;;;;;;;18.90;100.00;101957.91;10460780;28;20422;-68
2023/08/23 07:21:37;;;;;;;25.75;16.85;;;;;;;19.14;100.00;101942.19;10463655;28;20037;-68
2023/08/23 07:26:37;;;;;;;25.55;16.67;;;;;;;19.28;100.00;101942.38;10477673;28;20037;-68
2023/08/23 07:31:38;;;;;;;24.92;15.23;;;;;;;19.02;100.00;101911.00;10484441;28;20040;-67
2023/08/23 07:36:38;;;;;;;23.27;14.70;;;;;;;19.20;100.00;101956.13;10476132;28;20037;-68
2023/08/23 07:41:39;;;;;;;21.65;13.15;;;;;;;19.18;100.00;101955.56;10474654;28;20060;-67
2023/08/23 07:46:39;;;;;;;20.42;12.60;;;;;;;19.04;100.00;101959.00;10482477;28;20051;-67
2023/08/23 07:51:40;;;;;;;18.50;11.88;;;;;;;19.08;100.00;101951.72;10473719;28;20041;-68
2023/08/23 07:56:41;;;;;;;15.73;9.98;;;;;;;19.41;100.00;101956.84;10478980;28;20033;-67
2023/08/23 08:01:41;;;;;;;16.15;8.98;;;;;;;19.73;100.00;101950.81;10479466;28;20051;-69
2023/08/23 08:06:42;;;;;;;10.65;6.80;;;;;;;19.96;100.00;101952.03;10471706;28;20468;-67
2023/08/23 08:11:42;;;;;;;10.38;7.25;;;;;;;20.32;100.00;101948.94;10479078;28;20040;-69
2023/08/23 08:16:43;;;;;;;11.80;7.57;;;;;;;20.43;100.00;101963.66;10473103;28;20037;-68
2023/08/23 08:21:43;;;;;;;12.48;8.43;;;;;;;20.42;100.00;101945.19;10473479;28;20464;-69
2023/08/23 08:26:44;;;;;;;9.82;7.22;;;;;;;20.78;100.00;101956.06;10481331;28;20416;-68
2023/08/23 08:31:44;;;;;;;10.90;6.75;;;;;;;20.88;100.00;101927.94;10482223;28;20038;-68
2023/08/23 08:36:45;;;;;;;8.55;6.18;;;;;;;21.13;100.00;101943.59;10471924;28;20065;-68
2023/08/23 08:41:45;;;;;;;6.90;4.65;;;;;;;21.40;100.00;101956.09;10472059;28;20047;-68
2023/08/23 08:46:46;;;;;;;6.10;4.32;;;;;;;21.34;100.00;101946.94;10469506;28;20041;-68
2023/08/23 08:51:47;;;;;;;8.02;5.00;;;;;;;21.49;100.00;101946.72;10475597;28;20060;-68
2023/08/23 08:56:47;;;;;;;6.55;4.45;;;;;;;21.66;100.00;101939.75;10473927;28;20041;-68
2023/08/23 09:01:48;;;;;;;9.85;4.35;;;;;;;21.90;100.00;101934.88;10460354;28;20040;-68
2023/08/23 09:06:48;;;;;;;3.88;2.80;;;;;;;21.95;100.00;101923.59;10433601;28;20052;-68
2023/08/23 09:11:49;;;;;;;6.13;3.50;;;;;;;22.41;100.00;101940.78;10477397;28;20061;-68
2023/08/23 09:16:49;;;;;;;5.30;3.42;;;;;;;22.71;100.00;101939.38;10488434;28;20049;-68
2023/08/23 09:21:50;;;;;;;7.50;3.30;;;;;;;22.98;100.00;101936.53;10476788;28;20041;-68
2023/08/23 09:26:50;;;;;;;4.28;2.17;;;;;;;23.26;100.00;101924.50;10469071;28;20432;-68
2023/08/23 09:31:51;;;;;;;4.22;1.65;;;;;;;23.39;100.00;101923.63;10475234;28;20060;-68
2023/08/23 09:36:51;;;;;;;2.15;1.48;;;;;;;23.41;100.00;101910.09;10472907;28;20044;-69
2023/08/23 09:41:52;;;;;;;3.45;2.10;;;;;;;23.49;100.00;101903.72;10457548;28;20095;-68
2023/08/23 09:46:52;;;;;;;3.25;1.35;;;;;;;23.80;100.00;101914.25;10471329;28;20037;-68
2023/08/23 09:51:54;;;;;;;3.58;1.60;;;;;;;23.36;100.00;101908.22;10477095;28;20438;-68
2023/08/23 09:56:55;;;;;;;3.15;2.22;;;;;;;23.31;100.00;101899.06;10447526;28;20070;-68
2023/08/23 10:01:55;;;;;;;3.25;2.13;;;;;;;23.79;100.00;101901.31;10475761;28;20051;-68
2023/08/23 10:06:56;;;;;;;5.93;1.20;;;;;;;23.56;100.00;101892.88;10468885;28;20535;-69
2023/08/23 10:11:56;;;;;;;9.00;1.85;;;;;;;24.03;100.00;101888.94;10474927;28;20037;-69
2023/08/23 10:16:57;;;;;;;1.88;1.15;;;;;;;24.38;100.00;101899.22;10453145;28;20296;-69
2023/08/23 10:21:57;;;;;;;2.58;1.05;;;;;;;24.65;100.00;101893.72;10468492;28;20114;-69
2023/08/23 10:27:04;;;;;;;4.35;1.30;;;;;;;24.86;100.00;101869.44;10452766;28;20055;-68
2023/08/23 10:32:10;;;;;;;3.13;1.10;;;;;;;24.92;100.00;101879.38;10448582;28;20036;-68
2023/08/23 10:37:18;;;;;;;3.13;1.38;;;;;;;25.34;100.00;101870.50;10463024;28;20047;-68
2023/08/23 10:42:20;;;;;;;3.13;1.17;;;;;;;25.13;100.00;101868.31;10468468;28;20056;-68
2023/08/23 10:47:21;;;;;;;3.03;1.50;;;;;;;24.59;100.00;101859.25;10467620;28;20128;-67
2023/08/23 10:52:21;;;;;;;5.20;1.80;;;;;;;24.21;100.00;101859.75;10432416;28;20060;-69
2023/08/23 10:57:22;;;;;;;4.93;1.10;;;;;;;25.08;100.00;101848.75;10476886;28;20094;-67
2023/08/23 11:02:22;;;;;;;2.70;1.23;;;;;;;25.94;100.00;101841.47;10479622;28;20055;-67
2023/08/23 11:07:26;;;;;;;2.47;1.30;;;;;;;26.36;100.00;101844.47;10477642;28;20037;-67
2023/08/23 11:12:27;;;;;;;4.07;1.48;;;;;;;26.34;100.00;101835.50;10480432;28;20044;-67
2023/08/23 11:17:27;;;;;;;3.38;1.38;;;;;;;26.30;100.00;101837.34;10470734;28;20044;-66
2023/08/23 11:22:28;;;;;;;4.95;1.75;;;;;;;25.83;100.00;101836.47;10475789;28;20041;-67
2023/08/23 11:27:29;;;;;;;2.17;1.08;;;;;;;25.88;100.00;101834.31;10484568;28;20032;-67
2023/08/23 11:32:29;;;;;;;2.88;1.60;;;;;;;26.42;100.00;101818.84;10475298;28;20037;-67
2023/08/23 11:37:30;;;;;;;4.30;1.30;;;;;;;26.49;100.00;101827.63;10477518;28;20036;-67
2023/08/23 11:42:31;;;;;;;2.53;1.20;;;;;;;26.48;100.00;101815.53;10477827;28;20079;-68
2023/08/23 11:47:31;;;;;;;5.60;1.60;;;;;;;26.69;100.00;101809.94;10475617;28;20048;-67
2023/08/23 11:52:32;;;;;;;13.98;2.10;;;;;;;26.59;100.00;101801.88;10474899;28;20064;-67
2023/08/23 11:57:33;;;;;;;3.28;1.40;;;;;;;26.20;100.00;101812.31;10475878;28;20128;-65
2023/08/23 12:02:34;;;;;;;2.65;1.52;;;;;;;26.18;100.00;101809.84;10477652;28;20497;-66
2023/08/23 12:07:34;;;;;;;2.15;1.50;;;;;;;26.00;100.00;101815.88;10481609;28;20048;-67
2023/08/23 12:12:35;;;;;;;4.10;1.40;;;;;;;26.51;100.00;101803.53;10471116;28;20102;-67
2023/08/23 12:17:36;;;;;;;5.38;1.45;;;;;;;27.78;100.00;101790.22;10479269;28;20497;-67
2023/08/23 12:22:37;;;;;;;3.08;1.90;;;;;;;26.88;100.00;101798.19;10476046;28;20091;-67
2023/08/23 12:27:38;;;;;;;3.78;1.67;;;;;;;25.70;100.00;101824.22;10476519;28;20406;-67
2023/08/23 12:32:38;;;;;;;3.85;2.00;;;;;;;25.66;100.00;101837.34;10481140;28;20037;-68
2023/08/23 12:37:39;;;;;;;4.95;2.50;;;;;;;27.12;100.00;101808.81;10467407;28;20033;-67
2023/08/23 12:42:41;;;;;;;4.45;2.58;;;;;;;28.21;100.00;101793.72;10478840;28;20104;-67
2023/08/23 12:47:41;;;;;;;4.32;2.13;;;;;;;29.54;100.00;101779.66;10457324;28;20100;-68
2023/08/23 12:52:42;;;;;;;3.97;2.10;;;;;;;30.29;94.65;101775.19;10462682;28;20077;-68
2023/08/23 12:57:42;;;;;;;5.32;2.33;;;;;;;30.52;90.36;101777.34;10462484;28;20557;-69
2023/08/23 13:02:43;;;;;;;3.47;1.75;;;;;;;30.09;91.19;101785.59;10473580;28;20754;-69
2023/08/23 13:07:43;;;;;;;5.88;1.73;;;;;;;30.31;89.05;101784.16;10462483;28;20481;-69
2023/08/23 13:12:44;;;;;;;3.30;1.50;;;;;;;30.35;87.18;101770.88;10463037;28;20442;-66
2023/08/23 13:17:44;;;;;;;3.05;1.50;;;;;;;31.28;82.49;101757.09;10474062;28;20041;-67
2023/08/23 13:22:45;;;;;;;3.60;1.42;;;;;;;31.23;76.49;101751.69;10472117;28;20055;-67
2023/08/23 13:27:45;;;;;;;3.67;1.50;;;;;;;31.95;75.18;101745.34;10474985;28;20037;-68
2023/08/23 13:32:46;;;;;;;5.90;2.05;;;;;;;32.02;71.15;101739.81;10465909;28;20037;-70
2023/08/23 13:37:46;;;;;;;3.85;1.08;;;;;;;31.74;69.37;101740.91;10463324;28;20041;-69
2023/08/23 13:42:47;;;;;;;5.35;1.52;;;;;;;29.03;74.71;101731.19;10473596;28;20033;-70
2023/08/23 13:47:47;;;;;;;1.90;0.93;;;;;;;28.41;80.69;101760.81;10476913;28;20321;-68
2023/08/23 13:52:48;;;;;;;3.80;1.45;;;;;;;28.18;81.49;101758.47;10473385;28;20036;-67
2023/08/23 13:57:48;;;;;;;4.32;1.33;;;;;;;28.71;79.08;101762.22;10472680;28;20056;-68
2023/08/23 14:02:49;;;;;;;2.97;1.20;;;;;;;28.83;77.80;101740.69;10477666;28;20089;-69
2023/08/23 14:07:49;;;;;;;3.15;1.50;;;;;;;28.72;78.19;101744.03;10471691;28;20048;-68
2023/08/23 14:12:49;;;;;;;3.28;1.60;;;;;;;28.68;80.66;101747.94;10473237;28;20033;-68
2023/08/23 14:17:50;;;;;;;2.33;1.20;;;;;;;29.60;77.52;101749.00;10472526;28;20066;-68
2023/08/23 14:22:50;;;;;;;4.53;1.65;;;;;;;30.26;75.77;101736.09;10475069;28;20045;-67
2023/08/23 14:27:51;;;;;;;5.20;1.10;;;;;;;30.57;73.20;101728.75;10471012;28;20091;-68
2023/08/23 14:32:52;;;;;;;2.22;1.27;;;;;;;31.35;71.38;101718.22;10471292;28;20124;-74
2023/08/23 14:37:53;;;;;;;2.35;1.50;;;;;;;30.12;71.84;101724.44;10443300;28;20090;-72
2023/08/23 14:42:53;;;;;;;4.00;1.25;;;;;;;28.96;77.23;101745.13;10467504;28;20036;-71
2023/08/23 14:47:54;;;;;;;4.47;3.08;;;;;;;27.74;85.15;101767.47;10474993;28;20075;-69
2023/08/23 14:52:54;;;;;;;5.20;2.25;;;;;;;26.70;94.22;101786.16;10475642;28;20029;-70
2023/08/23 14:57:56;;;;;;;7.90;3.35;;;;;;;26.63;100.00;101802.84;10472556;28;20040;-73
2023/08/23 15:02:56;;;;;;;6.80;3.22;;;;;;;26.91;100.00;101802.31;10476403;28;20055;-80
2023/08/23 15:07:57;;;;;;;5.63;3.17;;;;;;;27.21;100.00;101802.25;10458955;22;20048;-79
2023/08/23 15:12:57;;;;;;;4.68;2.85;;;;;;;26.42;100.00;101799.94;10471819;28;20065;-69
2023/08/23 15:17:58;;;;;;;9.05;2.88;;;;;;;25.78;100.00;101812.09;10440125;28;20060;-72
2023/08/23 15:22:58;;;;;;;7.55;4.43;;;;;;;25.63;100.00;101815.44;10436969;28;20160;-70
2023/08/23 15:27:59;;;;;;;9.73;4.40;;;;;;;25.10;100.00;101821.09;10435206;28;20049;-69
2023/08/23 15:32:59;;;;;;;8.50;4.25;;;;;;;24.74;100.00;101813.75;10438478;28;20033;-71
2023/08/23 15:37:59;;;;;;;6.30;3.28;;;;;;;25.22;100.00;101833.72;10425888;28;20476;-73
2023/08/23 15:43:00;;;;;;;5.97;3.15;;;;;;;26.36;100.00;101816.22;10435172;28;20091;-69
2023/08/23 15:48:01;;;;;;;5.05;2.97;;;;;;;26.42;100.00;101821.69;10436797;28;20032;-69
2023/08/23 15:53:01;;;;;;;6.78;3.08;;;;;;;26.09;100.00;101816.69;10436805;28;20092;-69
2023/08/23 15:58:03;;;;;;;4.35;2.90;;;;;;;24.93;100.00;101821.09;10442632;28;20414;-71
2023/08/23 16:03:04;;;;;;;5.85;3.60;;;;;;;24.12;100.00;101809.06;10422530;28;20045;-70
2023/08/23 16:08:05;;;;;;;7.97;3.72;;;;;;;23.76;100.00;101834.47;10424710;28;20056;-73
2023/08/23 16:13:05;;;;;;;7.40;3.47;;;;;;;23.74;100.00;101833.94;10431276;28;20037;-69
2023/08/23 16:18:06;;;;;;;7.60;2.80;;;;;;;23.71;100.00;101843.00;10448002;28;20128;-67
2023/08/23 16:23:06;;;;;;;4.50;2.25;;;;;;;23.46;100.00;101841.69;10423413;28;20041;-77
2023/08/23 16:28:08;;;;;;;2.25;1.40;;;;;;;23.29;100.00;101831.97;10437799;28;20072;-73
2023/08/23 16:33:09;;;;;;;5.38;1.73;;;;;;;23.39;100.00;101824.44;10419445;28;20370;-75
2023/08/23 16:38:09;;;;;;;3.03;1.33;;;;;;;22.94;100.00;101823.22;10447243;28;20060;-68
2023/08/23 16:43:10;;;;;;;4.72;1.45;;;;;;;22.81;100.00;101826.84;10455797;28;20046;-69
2023/08/23 16:48:10;;;;;;;2.88;1.20;;;;;;;22.79;100.00;101831.13;10430702;28;20033;-70
2023/08/23 16:53:11;;;;;;;3.35;1.33;;;;;;;22.48;100.00;101834.59;10422232;28;20033;-70
2023/08/23 16:58:12;;;;;;;4.82;1.17;;;;;;;22.21;100.00;101839.00;10435046;28;20050;-70
2023/08/23 17:03:12;;;;;;;3.13;1.30;;;;;;;22.06;100.00;101828.91;10431864;28;20044;-69
2023/08/23 17:08:13;;;;;;;2.45;0.82;;;;;;;21.97;100.00;101825.16;10432295;28;20038;-70
2023/08/23 17:13:14;;;;;;;5.65;1.42;;;;;;;21.73;100.00;101816.91;10447676;28;20320;-69
2023/08/23 17:18:14;;;;;;;1.35;0.82;;;;;;;21.67;100.00;101826.53;10415971;28;20037;-70
2023/08/23 17:23:17;;;;;;;3.30;1.52;;;;;;;21.46;100.00;101826.88;10439646;28;20052;-69
2023/08/23 17:28:17;;;;;;;3.63;0.70;;;;;;;21.32;100.00;101834.38;10426150;28;20046;-65
2023/08/23 17:33:19;;;;;;;2.33;0.52;;;;;;;21.17;100.00;101841.88;10433882;28;20509;-65
2023/08/23 17:38:20;;;;;;;3.92;1.30;;;;;;;20.95;100.00;101844.41;10452552;28;20100;-64
2023/08/23 17:43:21;;;;;;;2.65;0.50;;;;;;;20.81;100.00;101849.91;10437740;28;20098;-65
2023/08/23 17:48:21;;;;;;;2.65;0.80;;;;;;;20.74;100.00;101858.69;10437851;28;20033;-65
2023/08/23 17:53:21;;;;;;;2.28;0.60;;;;;;;20.67;100.00;101860.16;10439567;28;20034;-65
2023/08/23 17:58:22;;;;;;;1.67;0.60;;;;;;;20.53;100.00;101857.25;10437486;28;20057;-66
2023/08/23 18:03:24;;;;;;;4.70;0.63;;;;;;;20.45;100.00;101857.91;10442933;28;20604;-66
2023/08/23 18:08:25;;;;;;;1.77;0.60;;;;;;;20.42;100.00;101847.28;10419570;28;20042;-66
2023/08/23 18:13:25;;;;;;;1.25;0.75;;;;;;;20.38;100.00;101863.81;10445266;28;20069;-65
2023/08/23 18:18:25;;;;;;;2.38;1.27;;;;;;;20.28;100.00;101862.00;10437122;28;20045;-66
2023/08/23 18:23:26;;;;;;;2.55;0.52;;;;;;;20.22;100.00;101854.78;10443811;28;20076;-65
2023/08/23 18:28:26;;;;;;;2.85;0.70;;;;;;;20.25;100.00;101870.97;10445383;28;20052;-65
2023/08/23 18:33:29;;;;;;;2.70;1.40;;;;;;;20.15;100.00;101871.06;10443852;28;20065;-65
2023/08/23 18:38:30;;;;;;;2.35;0.80;;;;;;;20.06;100.00;101881.25;10445124;28;20033;-66
2023/08/23 18:43:31;;;;;;;2.03;0.65;;;;;;;19.97;100.00;101881.03;10447013;28;20061;-66
2023/08/23 18:48:31;;;;;;;3.38;0.70;;;;;;;19.91;100.00;101888.63;10442722;28;20041;-66
2023/08/23 18:53:32;;;;;;;3.50;0.95;;;;;;;19.83;100.00;101897.66;10443697;28;20049;-65
2023/08/23 18:58:32;;;;;;;3.75;1.25;;;;;;;19.77;100.00;101898.81;10423014;28;20044;-66
2023/08/23 19:03:33;;;;;;;6.10;1.35;;;;;;;19.67;100.00;101907.25;10423829;28;20045;-68
2023/08/23 19:08:33;;;;;;;2.53;1.35;;;;;;;19.58;100.00;101901.44;10443762;28;20052;-66
2023/08/23 19:13:34;;;;;;;2.40;1.08;;;;;;;19.59;100.00;101910.66;10477556;28;20041;-66
2023/08/23 19:18:35;;;;;;;4.40;1.33;;;;;;;19.51;100.00;101912.94;10425080;28;20049;-67
2023/08/23 19:23:35;;;;;;;3.28;1.15;;;;;;;19.46;100.00;101915.75;10431384;28;20046;-66
2023/08/23 19:28:36;;;;;;;3.70;0.98;;;;;;;19.47;100.00;101925.81;10425343;28;20033;-67
2023/08/23 19:33:36;;;;;;;4.05;1.30;;;;;;;19.43;100.00;101919.16;10455742;28;20038;-67
2023/08/23 19:38:37;;;;;;;4.15;1.00;;;;;;;19.31;100.00;101913.91;10442329;28;20030;-66
2023/08/23 19:43:37;;;;;;;3.15;1.27;;;;;;;19.33;100.00;101922.00;10443597;28;20064;-66
2023/08/23 19:48:38;;;;;;;6.88;1.77;;;;;;;19.27;100.00;101914.78;10444029;28;20064;-65
2023/08/23 19:53:39;;;;;;;2.95;1.20;;;;;;;19.23;100.00;101916.47;10443432;28;20044;-66
2023/08/23 19:58:40;;;;;;;3.40;1.05;;;;;;;19.21;100.00;101918.72;10426536;28;20516;-66
2023/08/23 20:03:40;;;;;;;2.97;1.40;;;;;;;18.74;100.00;101843.53;10441595;28;20056;-67
2023/08/23 20:08:41;;;;;;;3.05;1.10;;;;;;;19.16;100.00;101922.34;10439960;28;20060;-66
2023/08/23 20:13:43;;;;;;;6.05;1.45;;;;;;;19.13;100.00;101912.59;10452640;28;20041;-66
2023/08/23 20:18:44;;;;;;;4.45;1.95;;;;;;;19.11;100.00;101919.59;10404760;28;20052;-67
2023/08/23 20:23:44;;;;;;;6.15;1.90;;;;;;;19.05;100.00;101912.38;10405155;28;20076;-66
2023/08/23 20:28:45;;;;;;;9.65;3.00;;;;;;;19.05;100.00;101913.19;10402392;28;20052;-66
2023/08/23 20:33:45;;;;;;;4.82;2.70;;;;;;;19.05;100.00;101926.31;10402584;28;20457;-65
2023/08/23 20:38:46;;;;;;;7.70;4.35;;;;;;;18.97;100.00;101922.16;10404862;28;20057;-65
2023/08/23 20:43:47;;;;;;;8.48;3.78;;;;;;;18.95;100.00;101916.03;10435589;28;20053;-65
2023/08/23 20:48:48;;;;;;;8.18;2.90;;;;;;;18.89;100.00;101919.97;10434899;28;20052;-66
2023/08/23 20:53:51;;;;;;;5.93;2.50;;;;;;;18.83;100.00;101918.31;10435827;28;20042;-66
2023/08/23 20:58:51;;;;;;;5.15;2.63;;;;;;;18.74;100.00;101921.66;10439604;28;20045;-66
2023/08/23 21:03:52;;;;;;;4.50;2.35;;;;;;;18.63;100.00;101927.56;10442150;28;20056;-66
2023/08/23 21:08:52;;;;;;;5.50;3.10;;;;;;;18.51;100.00;101923.13;10438319;28;20041;-66
2023/08/23 21:13:53;;;;;;;6.63;2.88;;;;;;;18.48;100.00;101934.00;10437467;28;20442;-67
2023/08/23 21:18:54;;;;;;;11.68;3.22;;;;;;;18.44;100.00;101921.72;10437544;28;20068;-67
2023/08/23 21:23:54;;;;;;;7.22;2.88;;;;;;;18.29;100.00;101903.94;10431918;28;20041;-66
2023/08/23 21:28:57;;;;;;;5.30;2.33;;;;;;;18.21;100.00;101912.88;10441286;28;20279;-66
2023/08/23 21:33:57;;;;;;;8.07;3.58;;;;;;;18.00;100.00;101914.00;10439412;28;20062;-67
2023/08/23 21:38:58;;;;;;;8.57;3.35;;;;;;;17.76;100.00;101906.19;10435676;28;20068;-66
2023/08/23 21:43:58;;;;;;;6.63;3.35;;;;;;;17.53;100.00;101902.81;10417821;28;20991;-66
2023/08/23 21:48:59;;;;;;;6.93;3.60;;;;;;;17.36;100.00;101905.00;10441000;28;20045;-66
2023/08/23 21:54:00;;;;;;;9.52;3.13;;;;;;;17.17;100.00;101903.84;10439534;28;20052;-66
2023/08/23 21:59:00;;;;;;;8.90;4.82;;;;;;;16.98;100.00;101907.09;10406503;28;20124;-65
2023/08/23 22:04:01;;;;;;;3.38;2.80;;;;;;;16.77;100.00;101899.78;10441579;28;20037;-66
2023/08/23 22:09:02;;;;;;;8.43;3.63;;;;;;;16.55;100.00;101887.69;10419617;28;20044;-66
2023/08/23 22:14:03;;;;;;;7.40;4.32;;;;;;;16.36;100.00;101888.44;10442391;28;20124;-66
2023/08/23 22:19:03;;;;;;;7.32;3.85;;;;;;;16.22;100.00;101891.66;10420527;28;20036;-66
2023/08/23 22:24:04;;;;;;;10.48;5.43;;;;;;;16.07;100.00;101897.13;10437164;28;20041;-66
2023/08/23 22:29:07;;;;;;;13.05;5.28;;;;;;;16.01;100.00;101903.75;10414336;28;20037;-65
2023/08/23 22:34:07;;;;;;;10.02;6.03;;;;;;;15.80;100.00;101891.63;10422034;28;20044;-66
2023/08/23 22:39:08;;;;;;;11.85;6.43;;;;;;;15.86;100.00;101912.78;10441369;28;20041;-66